createdAt,value
2019-02-27T00:01:58.342Z,17.20
2019-02-27T00:04:29.316Z,13.98
2019-02-27T00:07:01.218Z,17.95
2019-02-27T00:09:32.855Z,15.28
2019-02-27T00:12:04.603Z,15.23
2019-02-27T00:14:35.946Z,15.93
2019-02-27T00:17:08.261Z,14.85
2019-02-27T00:19:39.339Z,15.07
2019-02-27T00:22:10.655Z,16.35
2019-02-27T00:24:42.876Z,13.15
2019-02-27T00:27:14.828Z,14.78
2019-02-27T00:29:46.073Z,13.10
2019-02-27T00:32:18.641Z,15.38
2019-02-27T00:34:50.415Z,15.53
2019-02-27T00:37:21.508Z,13.35
2019-02-27T00:39:52.770Z,15.28
2019-02-27T00:42:33.114Z,13.43
2019-02-27T00:44:56.427Z,13.48
2019-02-27T00:47:27.264Z,15.08
2019-02-27T00:49:58.291Z,14.23
2019-02-27T00:52:29.166Z,14.03
2019-02-27T00:55:04.305Z,13.03
2019-02-27T00:57:32.648Z,14.20
2019-02-27T01:00:06.283Z,14.58
2019-02-27T01:02:36.656Z,14.47
2019-02-27T01:05:09.128Z,13.62
2019-02-27T01:07:40.450Z,14.38
2019-02-27T01:10:12.371Z,14.75
2019-02-27T01:12:44.058Z,12.88
2019-02-27T01:15:15.212Z,12.53
2019-02-27T01:17:46.440Z,14.13
2019-02-27T01:20:17.681Z,13.13
2019-02-27T01:22:48.739Z,13.65
2019-02-27T01:25:22.870Z,13.13
2019-02-27T01:27:52.206Z,14.30
2019-02-27T01:30:24.422Z,14.75
2019-02-27T01:32:55.626Z,12.98
2019-02-27T01:35:26.704Z,12.33
2019-02-27T01:37:57.635Z,13.00
2019-02-27T01:40:28.538Z,12.15
2019-02-27T01:43:05.543Z,14.38
2019-02-27T01:45:33.212Z,14.10
2019-02-27T01:48:04.077Z,13.78
2019-02-27T01:50:38.403Z,13.03
2019-02-27T01:53:09.975Z,12.23
2019-02-27T01:55:40.992Z,14.43
2019-02-27T01:58:11.976Z,13.40
2019-02-27T02:00:42.831Z,12.73
2019-02-27T02:03:15.009Z,13.23
2019-02-27T02:05:45.808Z,12.98
2019-02-27T02:08:16.774Z,15.58
2019-02-27T02:10:47.664Z,13.20
2019-02-27T02:13:26.313Z,11.83
2019-02-27T02:16:44.401Z,13.83
2019-02-27T02:19:57.026Z,12.90
2019-02-27T02:23:14.275Z,12.10
2019-02-27T02:25:55.320Z,12.10
2019-02-27T02:28:48.777Z,13.32
2019-02-27T02:31:47.415Z,12.37
2019-02-27T02:34:49.111Z,12.58
2019-02-27T02:38:00.088Z,14.55
2019-02-27T02:40:59.540Z,12.88
2019-02-27T02:44:07.227Z,13.43
2019-02-27T02:47:19.804Z,13.10
2019-02-27T02:50:17.762Z,13.53
2019-02-27T02:53:32.545Z,15.40
2019-02-27T02:56:13.166Z,12.07
2019-02-27T02:59:24.410Z,12.33
2019-02-27T03:01:58.211Z,12.73
2019-02-27T03:05:25.922Z,12.37
2019-02-27T03:08:12.473Z,13.00
2019-02-27T03:11:06.345Z,12.37
2019-02-27T03:13:59.504Z,13.50
2019-02-27T03:17:19.741Z,14.25
2019-02-27T03:20:27.364Z,16.23
2019-02-27T03:23:54.415Z,13.60
2019-02-27T03:27:04.236Z,15.23
2019-02-27T03:29:58.681Z,13.58
2019-02-27T03:32:58.228Z,12.35
2019-02-27T03:36:14.568Z,12.15
2019-02-27T03:39:13.945Z,14.30
2019-02-27T03:42:44.223Z,13.53
2019-02-27T03:45:30.687Z,12.15
2019-02-27T03:48:36.831Z,12.37
2019-02-27T03:51:31.332Z,11.78
2019-02-27T03:54:33.358Z,12.40
2019-02-27T03:57:20.173Z,13.03
2019-02-27T04:00:31.763Z,13.23
2019-02-27T04:03:41.780Z,11.95
2019-02-27T04:06:53.087Z,11.73
2019-02-27T04:09:25.854Z,12.65
2019-02-27T04:11:56.823Z,12.13
2019-02-27T04:14:29.804Z,13.45
2019-02-27T04:17:05.374Z,13.62
2019-02-27T04:19:38.736Z,13.83
2019-02-27T04:22:06.790Z,12.98
2019-02-27T04:24:38.131Z,11.38
2019-02-27T04:27:09.697Z,13.85
2019-02-27T04:29:41.791Z,12.10
2019-02-27T04:32:13.354Z,12.73
2019-02-27T04:34:44.656Z,12.18
2019-02-27T04:37:17.727Z,15.45
2019-02-27T04:39:48.248Z,12.47
2019-02-27T04:42:19.781Z,12.33
2019-02-27T04:44:51.262Z,15.28
2019-02-27T04:47:22.216Z,12.13
2019-02-27T04:49:53.020Z,11.63
2019-02-27T04:52:24.426Z,13.55
2019-02-27T04:54:56.303Z,14.83
2019-02-27T04:57:27.367Z,13.25
2019-02-27T04:59:58.303Z,12.37
2019-02-27T05:02:29.639Z,13.03
2019-02-27T05:05:00.459Z,12.45
2019-02-27T05:07:31.419Z,10.93
2019-02-27T05:10:02.352Z,15.32
2019-02-27T05:12:33.291Z,13.13
2019-02-27T05:15:05.139Z,13.18
2019-02-27T05:17:36.176Z,11.80
2019-02-27T05:20:11.446Z,11.63
2019-02-27T05:22:39.894Z,11.95
2019-02-27T05:25:12.063Z,13.13
2019-02-27T05:27:43.846Z,15.23
2019-02-27T05:30:15.296Z,11.27
2019-02-27T05:32:46.289Z,11.40
2019-02-27T05:35:17.268Z,13.50
2019-02-27T05:37:49.780Z,11.28
2019-02-27T05:40:23.145Z,11.70
2019-02-27T05:42:53.487Z,9.95
2019-02-27T05:45:24.409Z,12.25
2019-02-27T05:47:55.273Z,12.10
2019-02-27T05:50:26.483Z,11.68
2019-02-27T05:52:57.752Z,11.73
2019-02-27T05:55:29.245Z,13.20
2019-02-27T05:58:00.426Z,13.05
2019-02-27T06:00:31.783Z,10.78
2019-02-27T06:03:03.232Z,9.88
2019-02-27T06:05:36.052Z,10.35
2019-02-27T06:08:07.228Z,14.18
2019-02-27T06:10:38.092Z,17.77
2019-02-27T06:13:09.409Z,11.70
2019-02-27T06:15:40.556Z,11.95
2019-02-27T06:18:11.332Z,10.38
2019-02-27T06:20:42.561Z,12.07
2019-02-27T06:23:13.427Z,14.28
2019-02-27T06:25:44.248Z,10.45
2019-02-27T06:28:18.441Z,10.32
2019-02-27T06:30:47.613Z,12.18
2019-02-27T06:33:18.461Z,12.20
2019-02-27T06:35:49.514Z,13.88
2019-02-27T06:38:20.400Z,15.18
2019-02-27T06:40:51.361Z,11.85
2019-02-27T06:43:22.308Z,14.40
2019-02-27T06:45:54.295Z,17.07
2019-02-27T06:48:25.387Z,11.43
2019-02-27T06:50:58.299Z,12.80
2019-02-27T06:53:29.326Z,13.13
2019-02-27T06:56:02.948Z,13.03
2019-02-27T06:58:33.263Z,10.28
2019-02-27T07:01:09.338Z,12.25
2019-02-27T07:03:37.242Z,11.10
2019-02-27T07:06:08.139Z,11.38
2019-02-27T07:08:39.002Z,13.30
2019-02-27T07:11:11.302Z,12.05
2019-02-27T07:13:42.433Z,12.73
2019-02-27T07:16:13.304Z,12.98
2019-02-27T07:18:44.657Z,17.32
2019-02-27T07:21:15.911Z,13.30
2019-02-27T07:23:46.942Z,15.98
2019-02-27T07:26:17.971Z,13.70
2019-02-27T07:28:48.909Z,13.48
2019-02-27T07:31:19.873Z,14.35
2019-02-27T07:33:51.389Z,13.55
2019-02-27T07:36:22.683Z,13.98
2019-02-27T07:38:54.335Z,13.10
2019-02-27T07:41:26.184Z,12.63
2019-02-27T07:43:57.329Z,11.30
2019-02-27T07:46:28.122Z,9.90
2019-02-27T07:49:01.558Z,12.13
2019-02-27T07:51:33.554Z,12.90
2019-02-27T07:54:04.423Z,13.00
2019-02-27T07:56:35.251Z,13.72
2019-02-27T07:59:06.716Z,12.27
2019-02-27T08:01:43.791Z,15.63
2019-02-27T08:04:10.835Z,15.38
2019-02-27T08:06:42.046Z,16.73
2019-02-27T08:09:13.050Z,12.98
2019-02-27T08:11:47.078Z,12.40
2019-02-27T08:14:16.732Z,10.60
2019-02-27T08:16:48.115Z,10.30
2019-02-27T08:19:19.044Z,12.07
2019-02-27T08:21:50.023Z,12.47
2019-02-27T08:24:22.351Z,11.10
2019-02-27T08:26:53.400Z,11.50
2019-02-27T08:29:24.362Z,14.58
2019-02-27T08:31:55.229Z,13.18
2019-02-27T08:34:26.158Z,14.47
2019-02-27T08:36:57.040Z,14.75
2019-02-27T08:39:28.286Z,14.93
2019-02-27T08:42:03.347Z,12.47
2019-02-27T08:44:31.686Z,13.58
2019-02-27T08:47:04.340Z,17.95
2019-02-27T08:49:35.388Z,14.73
2019-02-27T08:52:08.368Z,15.40
2019-02-27T08:54:39.027Z,17.52
2019-02-27T08:57:11.104Z,13.72
2019-02-27T08:59:41.943Z,16.27
2019-02-27T09:02:13.705Z,57.55
2019-02-27T09:04:45.427Z,14.83
2019-02-27T09:07:17.198Z,13.38
2019-02-27T09:09:51.353Z,15.83
2019-02-27T09:12:21.036Z,14.33
2019-02-27T09:14:51.975Z,14.25
2019-02-27T09:17:26.926Z,16.52
2019-02-27T09:19:55.788Z,14.50
2019-02-27T09:22:26.768Z,12.80
2019-02-27T09:24:57.708Z,14.90
2019-02-27T09:27:28.751Z,13.05
2019-02-27T09:29:59.780Z,15.58
2019-02-27T09:32:30.791Z,14.77
2019-02-27T09:35:01.617Z,14.05
2019-02-27T09:37:33.890Z,12.98
2019-02-27T09:40:06.121Z,14.55
2019-02-27T09:42:37.188Z,16.20
2019-02-27T09:45:20.881Z,15.00
2019-02-27T09:47:51.958Z,13.43
2019-02-27T09:50:47.560Z,11.68
2019-02-27T09:53:15.783Z,14.28
2019-02-27T09:55:46.981Z,12.20
2019-02-27T09:58:17.988Z,11.80
2019-02-27T10:00:51.522Z,15.03
2019-02-27T10:03:22.580Z,11.00
2019-02-27T10:05:53.535Z,13.03
2019-02-27T10:08:25.263Z,13.22
2019-02-27T10:10:57.105Z,12.60
2019-02-27T10:13:28.043Z,12.80
2019-02-27T10:16:01.338Z,14.07
2019-02-27T10:18:31.725Z,15.00
2019-02-27T10:21:02.699Z,10.32
2019-02-27T10:23:33.525Z,12.03
2019-02-27T10:26:05.502Z,12.18
2019-02-27T10:28:39.630Z,11.30
2019-02-27T10:31:09.339Z,12.30
2019-02-27T10:33:43.003Z,15.40
2019-02-27T10:36:12.958Z,11.55
2019-02-27T10:38:45.435Z,14.47
2019-02-27T10:41:16.540Z,11.85
2019-02-27T10:43:47.588Z,11.00
2019-02-27T10:46:18.647Z,13.20
2019-02-27T10:48:49.479Z,10.50
2019-02-27T10:51:20.676Z,13.00
2019-02-27T10:53:51.668Z,10.80
2019-02-27T10:56:24.277Z,14.38
2019-02-27T10:58:55.721Z,11.60
2019-02-27T11:01:27.076Z,12.03
2019-02-27T11:04:00.483Z,10.20
2019-02-27T11:06:34.074Z,12.25
2019-02-27T11:09:09.580Z,13.40
2019-02-27T11:11:40.547Z,11.68
2019-02-27T11:14:11.568Z,12.80
2019-02-27T11:16:42.462Z,12.73
2019-02-27T11:19:14.156Z,12.00
2019-02-27T11:21:46.912Z,11.22
2019-02-27T11:24:18.167Z,11.70
2019-02-27T11:26:48.934Z,10.70
2019-02-27T11:29:23.591Z,12.95
2019-02-27T11:31:52.228Z,10.00
2019-02-27T11:34:23.044Z,10.48
2019-02-27T11:36:54.296Z,11.57
2019-02-27T11:39:25.212Z,9.75
2019-02-27T11:41:56.137Z,10.05
2019-02-27T11:44:27.058Z,10.32
2019-02-27T11:46:59.057Z,12.75
2019-02-27T11:49:30.356Z,12.27
2019-02-27T11:52:01.167Z,10.32
2019-02-27T11:54:32.099Z,9.97
2019-02-27T11:57:03.291Z,10.85
2019-02-27T11:59:34.078Z,7.78
2019-02-27T12:02:04.924Z,9.73
2019-02-27T12:04:35.827Z,9.13
2019-02-27T12:07:06.769Z,11.57
2019-02-27T12:09:37.839Z,10.57
2019-02-27T12:12:10.431Z,10.45
2019-02-27T12:14:41.375Z,10.40
2019-02-27T12:17:12.420Z,11.50
2019-02-27T12:19:45.188Z,9.93
2019-02-27T12:22:16.120Z,12.05
2019-02-27T12:24:47.156Z,7.90
2019-02-27T12:27:37.782Z,8.18
2019-02-27T12:29:50.612Z,9.48
2019-02-27T12:32:21.946Z,8.95
2019-02-27T12:34:53.821Z,9.23
2019-02-27T12:37:28.388Z,10.10
2019-02-27T12:39:57.742Z,10.35
2019-02-27T12:42:37.142Z,8.98
2019-02-27T12:45:01.039Z,11.33
2019-02-27T12:47:31.848Z,10.93
2019-02-27T12:50:02.800Z,12.87
2019-02-27T12:52:33.916Z,8.33
2019-02-27T12:55:05.400Z,10.50
2019-02-27T12:57:36.381Z,10.05
2019-02-27T13:00:09.429Z,11.38
2019-02-27T13:02:40.288Z,11.25
2019-02-27T13:05:12.186Z,9.78
2019-02-27T13:07:44.702Z,11.15
2019-02-27T13:10:17.669Z,14.05
2019-02-27T13:12:49.179Z,11.15
2019-02-27T13:15:22.172Z,11.22
2019-02-27T13:17:56.157Z,11.93
2019-02-27T13:20:26.582Z,12.55
2019-02-27T13:22:57.495Z,12.88
2019-02-27T13:25:30.274Z,10.32
2019-02-27T13:28:01.027Z,10.10
2019-02-27T13:30:32.340Z,11.03
2019-02-27T13:33:03.387Z,10.70
2019-02-27T13:35:34.413Z,12.33
2019-02-27T13:38:05.417Z,12.93
2019-02-27T13:40:36.761Z,10.63
2019-02-27T13:43:07.592Z,11.33
2019-02-27T13:45:38.531Z,11.48
2019-02-27T13:48:10.368Z,37.83
2019-02-27T13:50:41.392Z,15.18
2019-02-27T13:53:12.655Z,39.25
2019-02-27T13:55:45.399Z,30.55
2019-02-27T13:58:17.091Z,10.13
2019-02-27T14:00:48.054Z,13.20
2019-02-27T14:03:19.069Z,9.83
2019-02-27T14:05:49.899Z,12.60
2019-02-27T14:08:20.796Z,10.30
2019-02-27T14:10:53.392Z,10.10
2019-02-27T14:13:24.351Z,9.50
2019-02-27T14:15:58.051Z,9.80
2019-02-27T14:18:28.407Z,7.75
2019-02-27T14:21:01.769Z,10.45
2019-02-27T14:23:31.723Z,8.13
2019-02-27T14:26:05.610Z,8.90
2019-02-27T14:28:35.607Z,10.32
2019-02-27T14:31:09.028Z,8.05
2019-02-27T14:33:39.146Z,7.58
2019-02-27T14:36:10.132Z,6.85
2019-02-27T14:38:41.345Z,7.15
2019-02-27T14:41:14.510Z,6.22
2019-02-27T14:43:45.257Z,5.97
2019-02-27T14:46:17.825Z,5.15
2019-02-27T14:48:48.799Z,5.37
2019-02-27T14:51:19.686Z,6.33
2019-02-27T14:53:52.707Z,6.47
2019-02-27T14:56:23.145Z,5.90
2019-02-27T14:58:56.534Z,6.17
2019-02-27T15:01:27.132Z,3.87
2019-02-27T15:04:00.392Z,5.20
2019-02-27T15:06:31.194Z,6.80
2019-02-27T15:09:03.535Z,5.75
2019-02-27T15:11:36.237Z,6.03
2019-02-27T15:14:07.131Z,4.12
2019-02-27T15:16:37.976Z,5.62
2019-02-27T15:19:09.165Z,5.70
2019-02-27T15:21:40.329Z,6.75
2019-02-27T15:24:11.214Z,4.22
2019-02-27T15:26:45.188Z,4.53
2019-02-27T15:29:14.679Z,5.45
2019-02-27T15:31:45.450Z,4.03
2019-02-27T15:34:16.216Z,3.60
2019-02-27T15:36:47.159Z,5.97
2019-02-27T15:39:21.102Z,3.98
2019-02-27T15:41:50.784Z,4.72
2019-02-27T15:44:21.649Z,4.42
2019-02-27T15:46:53.428Z,3.70
2019-02-27T15:49:25.045Z,4.15
2019-02-27T15:51:55.870Z,3.65
2019-02-27T15:54:26.630Z,4.50
2019-02-27T15:56:57.539Z,4.25
2019-02-27T15:59:28.381Z,3.75
2019-02-27T16:02:02.403Z,4.00
2019-02-27T16:04:31.656Z,3.70
2019-02-27T16:07:02.507Z,5.22
2019-02-27T16:09:33.255Z,6.62
2019-02-27T16:12:04.210Z,4.50
2019-02-27T16:14:35.051Z,7.58
2019-02-27T16:17:05.804Z,6.22
2019-02-27T16:19:36.700Z,6.12
2019-02-27T16:22:08.009Z,6.45
2019-02-27T16:24:40.357Z,4.42
2019-02-27T16:27:11.432Z,4.00
2019-02-27T16:29:42.336Z,5.67
2019-02-27T16:32:13.443Z,4.62
2019-02-27T16:34:45.914Z,5.10
2019-02-27T16:37:21.947Z,6.08
2019-02-27T16:39:50.410Z,5.08
2019-02-27T16:42:21.268Z,4.17
2019-02-27T16:44:54.449Z,4.05
2019-02-27T16:47:24.888Z,4.08
2019-02-27T16:49:56.157Z,3.98
2019-02-27T16:52:27.006Z,5.03
2019-02-27T16:55:00.959Z,5.90
2019-02-27T16:57:30.412Z,7.10
2019-02-27T17:00:01.873Z,6.75
2019-02-27T17:02:35.519Z,5.37
2019-02-27T17:05:08.889Z,5.72
2019-02-27T17:07:40.094Z,7.20
2019-02-27T17:10:15.037Z,6.77
2019-02-27T17:12:46.741Z,5.67
2019-02-27T17:15:17.969Z,5.45
2019-02-27T17:17:50.631Z,8.23
2019-02-27T17:20:21.628Z,4.85
2019-02-27T17:22:53.466Z,6.90
2019-02-27T17:25:28.697Z,8.20
2019-02-27T17:27:57.903Z,7.35
2019-02-27T17:30:36.636Z,7.00
2019-02-27T17:33:04.261Z,7.83
2019-02-27T17:35:36.047Z,6.95
2019-02-27T17:38:07.106Z,7.50
2019-02-27T17:40:37.944Z,7.03
2019-02-27T17:43:08.808Z,8.20
2019-02-27T17:45:39.568Z,7.90
2019-02-27T17:48:12.424Z,10.48
2019-02-27T17:50:42.967Z,13.00
2019-02-27T17:53:13.826Z,9.80
2019-02-27T17:55:44.924Z,8.65
2019-02-27T17:58:15.856Z,10.28
2019-02-27T18:00:50.360Z,11.22
2019-02-27T18:03:19.999Z,10.28
2019-02-27T18:05:51.282Z,11.12
2019-02-27T18:08:22.350Z,11.50
2019-02-27T18:10:53.160Z,9.73
2019-02-27T18:13:23.957Z,10.20
2019-02-27T18:15:54.954Z,9.50
2019-02-27T18:18:25.869Z,12.40
2019-02-27T18:20:59.479Z,9.65
2019-02-27T18:23:29.638Z,12.90
2019-02-27T18:26:00.520Z,10.05
2019-02-27T18:28:32.939Z,11.10
2019-02-27T18:31:03.830Z,10.82
2019-02-27T18:33:34.674Z,11.18
2019-02-27T18:36:05.943Z,12.03
2019-02-27T18:38:37.945Z,12.37
2019-02-27T18:41:08.727Z,12.55
2019-02-27T18:43:39.944Z,14.10
2019-02-27T18:46:11.361Z,11.18
2019-02-27T18:48:43.728Z,12.70
2019-02-27T18:51:14.621Z,13.62
2019-02-27T18:53:48.294Z,12.93
2019-02-27T18:56:18.005Z,13.40
2019-02-27T18:58:48.855Z,13.62
2019-02-27T19:01:20.154Z,15.50
2019-02-27T19:03:51.040Z,16.05
2019-02-27T19:06:21.839Z,19.20
2019-02-27T19:08:54.008Z,13.90
2019-02-27T19:11:24.804Z,15.45
2019-02-27T19:13:55.784Z,16.02
2019-02-27T19:16:26.713Z,16.40
2019-02-27T19:18:57.899Z,16.80
2019-02-27T19:21:32.544Z,16.77
2019-02-27T19:24:01.276Z,16.10
2019-02-27T19:26:36.133Z,16.23
2019-02-27T19:29:07.093Z,20.10
2019-02-27T19:31:38.125Z,21.93
2019-02-27T19:34:10.266Z,19.07
2019-02-27T19:36:41.865Z,18.95
2019-02-27T19:39:12.959Z,19.95
2019-02-27T19:41:43.999Z,19.70
2019-02-27T19:44:14.899Z,20.92
2019-02-27T19:46:47.701Z,26.02
2019-02-27T19:49:18.658Z,26.23
2019-02-27T19:51:54.535Z,31.40
2019-02-27T19:54:22.281Z,27.87
2019-02-27T19:56:55.105Z,23.62
2019-02-27T19:59:28.944Z,26.20
2019-02-27T20:01:59.485Z,25.77
2019-02-27T20:04:30.523Z,25.80
2019-02-27T20:07:01.760Z,25.85
2019-02-27T20:09:33.475Z,32.60
2019-02-27T20:12:04.396Z,23.83
2019-02-27T20:14:36.659Z,34.70
2019-02-27T20:17:08.732Z,29.20
2019-02-27T20:19:40.872Z,28.02
2019-02-27T20:22:12.008Z,25.50
2019-02-27T20:24:43.232Z,28.83
2019-02-27T20:27:14.575Z,26.42
2019-02-27T20:29:45.739Z,26.57
2019-02-27T20:32:16.973Z,24.50
2019-02-27T20:34:48.084Z,26.50
2019-02-27T20:37:19.178Z,24.27
2019-02-27T20:39:50.224Z,23.62
2019-02-27T20:42:21.629Z,21.37
2019-02-27T20:44:52.802Z,23.95
2019-02-27T20:47:23.999Z,20.25
2019-02-27T20:49:55.180Z,21.90
2019-02-27T20:52:26.369Z,19.87
2019-02-27T20:54:58.876Z,20.60
2019-02-27T20:57:30.402Z,19.57
2019-02-27T21:00:02.833Z,21.68
2019-02-27T21:02:35.198Z,22.15
2019-02-27T21:05:09.515Z,18.65
2019-02-27T21:07:41.991Z,20.00
2019-02-27T21:10:19.919Z,19.23
2019-02-27T21:12:54.055Z,18.89
2019-02-27T21:15:21.565Z,19.35
2019-02-27T21:17:57.596Z,18.27
2019-02-27T21:20:25.639Z,17.73
2019-02-27T21:22:59.980Z,18.67
2019-02-27T21:25:29.746Z,19.05
2019-02-27T21:28:00.874Z,16.95
2019-02-27T21:30:32.184Z,17.90
2019-02-27T21:33:03.314Z,17.07
2019-02-27T21:35:34.495Z,18.90
2019-02-27T21:38:05.638Z,17.98
2019-02-27T21:40:36.963Z,17.32
2019-02-27T21:43:09.190Z,17.37
2019-02-27T21:45:40.534Z,20.77
2019-02-27T21:48:11.620Z,19.95
2019-02-27T21:50:42.898Z,18.55
2019-02-27T21:53:13.955Z,16.23
2019-02-27T21:55:45.496Z,17.70
2019-02-27T21:58:20.401Z,20.20
2019-02-27T22:00:50.169Z,19.07
2019-02-27T22:03:21.533Z,17.35
2019-02-27T22:05:53.685Z,17.80
2019-02-27T22:08:25.274Z,20.60
2019-02-27T22:10:56.725Z,19.80
2019-02-27T22:13:30.292Z,21.00
2019-02-27T22:16:00.837Z,18.80
2019-02-27T22:18:32.059Z,18.40
2019-02-27T22:21:04.298Z,18.77
2019-02-27T22:23:35.470Z,20.13
2019-02-27T22:26:06.707Z,17.48
2019-02-27T22:28:37.784Z,17.73
2019-02-27T22:31:08.984Z,18.02
2019-02-27T22:33:40.276Z,16.52
2019-02-27T22:36:12.735Z,19.48
2019-02-27T22:38:44.482Z,16.62
2019-02-27T22:41:15.807Z,13.68
2019-02-27T22:43:47.034Z,18.17
2019-02-27T22:46:18.194Z,16.52
2019-02-27T22:48:49.373Z,17.75
2019-02-27T22:51:21.802Z,15.70
2019-02-27T22:53:52.986Z,15.32
2019-02-27T22:56:24.128Z,16.05
2019-02-27T22:58:55.191Z,17.20
2019-02-27T23:01:32.364Z,16.60
2019-02-27T23:04:09.172Z,16.00
2019-02-27T23:06:40.620Z,17.62
2019-02-27T23:09:14.696Z,14.38
2019-02-27T23:11:46.384Z,16.12
2019-02-27T23:14:18.920Z,14.20
2019-02-27T23:16:51.236Z,16.93
2019-02-27T23:19:22.372Z,15.88
2019-02-27T23:21:54.081Z,14.53
2019-02-27T23:24:25.266Z,21.30
2019-02-27T23:26:56.344Z,14.85
2019-02-27T23:29:27.645Z,14.47
2019-02-27T23:31:58.835Z,15.32
2019-02-27T23:34:32.752Z,16.65
2019-02-27T23:37:06.867Z,12.97
2019-02-27T23:39:39.671Z,15.28
2019-02-27T23:42:10.930Z,14.83
2019-02-27T23:45:54.577Z,12.78
2019-02-27T23:48:25.456Z,13.70
2019-02-27T23:50:56.252Z,15.08
2019-02-27T23:53:27.773Z,12.68
2019-02-27T23:55:58.902Z,13.68
2019-02-27T23:58:30.431Z,14.53
